MMLM 090341Z 32004KT 10SM SCT100 18/06 A2999 RMK 8/030= 090342

MMLM 090241Z 33006KT 10SM SCT100 20/06 A2998 RMK SLP153 8/030= 090241

MMLM 090156Z 34007KT 10SM SCT100 21/07 A2996 RMK 8/030= 090156

MMLM 090043Z 31004KT 10SM OVC080 23/10 A2995 RMK 8/02/ BINOVC= 090044

MMLM 082341Z 27007KT 10SM BKN080 BKN220 25/03 A2994 RMK SLP139 8/038= 082341

MMLM 082242Z 31006KT 10SM BKN080 BKN200 26/M01 A2994 RMK 8/028= 082243

MMLM 082140Z 31006KT 10SM BKN080 OVC220 27/M01 A2995 RMK 8/037= 082141

MMLM 082040Z 33006KT 10SM BKN080 OVC220 27/M01 A2996 RMK SLP146 8/037 BINOVC= 082041

MMLM 081940Z 00000KT 10SM BKN080 OVC220 27/01 A2998 RMK 8/037= 081940

MMLM 081843Z 00000KT 10SM BKN080 BKN220 25/02 A3000 RMK 8/038= 081844

MMLM 081741Z 10004KT 10SM BKN080 OVC220 21/05 A3003 RMK SLP1610 8/037= 081742

MMLM 081642Z 06005KT 10SM BKN080 17/06 A3002 RMK 8/020 HZY= 081643

MMLM 081540Z 04005KT 10SM BKN080 14/05 A3002 RMK 8/020 HZY= 081541

MMLM 081442Z 08005KT 8SM BKN080 12/05 A3000 RMK SLP1510 8/030 HZY= 081443

MMLM 081343Z 06006KT 8SM SCT080 11/05 A2998 RMK 8/030 HZY= 081343

MMLM 081259Z RTD 00000KT 8SM SKC 11/06 A2997 RMK HZY RTS= 081300

MMLM 080342Z 02005KT 10SM SCT230 16/12 A2997 RMK 8/001= 080343

MMLM 080249Z 00000KT 10SM SCT230 19/14 A2996 RMK SLP146 8/001= 080249

MMLM 080141Z 24004KT 10SM SCT230 20/12 A2995 RMK 8/001= 080141

MMLM 080040Z 27006KT 10SM SCT230 22/11 A2995 RMK 8/001= 080041

MMLM 072340Z 25008KT 10SM SCT230 25/07 A2995 RMK SLP143 8/001 HZY= 072341

MMLM 072249Z 26010KT 10SM SCT230 26/04 A2994 RMK 8/001 HZY= 072249

MMLM 072144Z 25007KT 10SM SCT230 27/07 A2994 RMK 8/001 HZY= 072146

MMLM 072040Z 24008KT 10SM BKN220 27/05 A2996 RMK SLP146 8/008 HZY= 072040

MMLM 071942Z 19005KT 10SM BKN220 27/05 A2997 RMK 8/008 HZY= 071942

MMLM 071845Z 35005KT 10SM BKN220 26/06 A3000 RMK 8/008 HZY= 071845

MMLM 071740Z 00000KT 10SM BKN220 23/10 A3002 RMK SLP166 8/008 HZY= 071741

MMLM 071645Z 36005KT 10SM BKN220 20/13 A3002 RMK 8/008 HZY= 071646

MMLM 071540Z 00000KT 7SM BKN220 15/13 A3001 RMK 8/008 HZY BRVC= 071541

COR MMLM 071441Z 00000KT 3SM BR SKC 11/09 A2998 RMK SLP1533= 071448

MMLM 071441Z 00000KT 1/4SM MIFG SKC 11/09 A2998 RMK SLP153= 071441

MMLM 071341Z 00000KT 0SM MIFG SKC 10/09 A2997= 071342

MMLM 071252Z 00000KT 0SM MIFG SKC 11/09 A2996 RMK RTS= 071253

MMLM 070340Z 29004KT 10SM SKC 19/15 A3000= 070341

MMLM 070249Z 27004KT 10SM SKC 19/15 A3000 RMK SLP1510= 070249

MMLM 070141Z 29005KT 10SM SKC 21/15 A2999= 070142

MMLM 070041Z 29007KT 10SM SKC 23/14 A2998= 070041

MMLM 062341Z 29012KT 10SM SKC 25/12 A2997 RMK SLP149 HZY= 062341

MMLM 062241Z 28012KT 10SM SKC 26/16 A2996 RMK HZY= 062241

MMLM 062142Z 28007KT 10SM SKC 27/15 A2996 RMK HZY= 062142

MMLM 062040Z 28009KT 10SM SKC 28/09 A2997 RMK SLP149 HZY= 062041

MMLM 061940Z 33006KT 10SM SKC 27/08 A3000 RMK HZY= 061941

MMLM 061840Z 36005KT 10SM SKC 26/08 A3003 RMK HZY= 061840

MMLM 061740Z 02005KT 10SM SKC 23/12 A3005 RMK SLP177 HZY= 061741

MMLM 061640Z 00000KT 8SM SKC 21/14 A3006 RMK HZY= 061640

MMLM 061540Z 00000KT 8SM SKC 17/13 A3005 RMK HZY BRVC= 061541

MMLM 061440Z 00000KT 3SM BR SKC 13/11 A3003 RMK SLP1610 HZY= 061441

MMLM 061401Z RTD 04005KT 2SM BR VV003 11/09 A3002 RMK 8//// RTS= 061401

MMLM 060340Z 32002KT 10SM SKC 19/15 A2996= 060340

MMLM 060244Z 27002KT 10SM FEW100 20/14 A2995 RMK SLP143 8/030= 060244